Time;durP1;ratioP1;P1;durP2;ratioP2;P2;SDS_P1;SDS_P2;PMS_P1;PMS_P2;Temp;Humidity;BMP_temperature;BMP_pressure;BME280_temperature;BME280_humidity;BME280_pressure;Samples;Min_cycle;Max_cycle;Signal;HPM_P1;HPM_P2
2022/10/17 00:00:24;;;;;;;20.55;15.70;;;;;;;13.21;100.00;101538.22;5254906;28;20504;-82
2022/10/17 00:02:55;;;;;;;19.17;16.15;;;;;;;13.27;100.00;101535.00;5257660;28;20053;-82
2022/10/17 00:05:27;;;;;;;17.67;15.50;;;;;;;13.30;100.00;101531.16;5260739;28;20087;-82
2022/10/17 00:07:59;;;;;;;21.05;16.05;;;;;;;13.31;100.00;101519.47;5269394;28;20450;-82
2022/10/17 00:10:30;;;;;;;18.92;16.92;;;;;;;13.42;100.00;101535.41;5298087;28;20040;-83
2022/10/17 00:13:02;;;;;;;19.77;15.73;;;;;;;13.42;100.00;101535.41;5294866;28;20120;-82
2022/10/17 00:15:33;;;;;;;19.98;15.90;;;;;;;13.46;100.00;101535.97;5266914;28;20496;-82
2022/10/17 00:18:05;;;;;;;23.55;16.92;;;;;;;13.41;100.00;101518.50;5265378;28;20030;-82
2022/10/17 00:20:36;;;;;;;20.48;16.55;;;;;;;13.48;100.00;101529.47;5264880;28;20141;-82
2022/10/17 00:23:07;;;;;;;18.60;16.58;;;;;;;13.46;100.00;101518.03;5262184;28;20036;-82
2022/10/17 00:25:39;;;;;;;19.85;17.75;;;;;;;13.51;100.00;101512.25;5266612;28;20033;-82
2022/10/17 00:28:11;;;;;;;19.10;16.20;;;;;;;13.55;100.00;101517.19;5266386;28;20033;-82
2022/10/17 00:30:43;;;;;;;20.30;16.30;;;;;;;13.56;100.00;101513.50;5266482;28;20100;-82
2022/10/17 00:33:14;;;;;;;20.15;16.92;;;;;;;13.58;100.00;101513.34;5261970;28;20113;-82
2022/10/17 00:35:45;;;;;;;19.35;16.15;;;;;;;13.58;100.00;101511.50;5265869;28;20032;-82
2022/10/17 00:38:17;;;;;;;20.65;17.20;;;;;;;13.59;100.00;101510.53;5265458;28;20397;-82
2022/10/17 00:40:48;;;;;;;20.25;17.45;;;;;;;13.56;100.00;101501.94;5268246;28;20470;-82
2022/10/17 00:43:19;;;;;;;20.52;17.52;;;;;;;13.55;100.00;101505.59;5262447;28;20042;-82
2022/10/17 00:45:51;;;;;;;18.35;16.38;;;;;;;13.57;100.00;101511.69;5262555;28;20025;-82
2022/10/17 00:48:24;;;;;;;19.77;17.75;;;;;;;13.56;100.00;101505.47;5268496;28;20393;-82
2022/10/17 00:50:55;;;;;;;19.00;17.00;;;;;;;13.56;100.00;101515.34;5259409;28;20088;-82
2022/10/17 00:53:27;;;;;;;18.73;16.73;;;;;;;13.58;100.00;101508.84;5257484;28;20025;-82
2022/10/17 00:55:58;;;;;;;18.58;16.58;;;;;;;13.54;100.00;101515.50;5266221;28;20152;-82
2022/10/17 00:58:30;;;;;;;18.55;16.33;;;;;;;13.46;100.00;101501.13;5263140;28;20025;-82
2022/10/17 01:01:02;;;;;;;17.88;16.05;;;;;;;13.51;100.00;101506.88;5257176;28;20045;-82
2022/10/17 01:03:33;;;;;;;19.15;17.08;;;;;;;13.46;100.00;101510.00;5272622;28;20096;-83
2022/10/17 01:06:04;;;;;;;20.17;16.33;;;;;;;13.45;100.00;101513.69;5269127;28;20330;-82
2022/10/17 01:08:36;;;;;;;19.70;17.20;;;;;;;13.42;100.00;101508.59;5299972;28;20034;-82
2022/10/17 01:11:16;;;;;;;20.38;17.45;;;;;;;13.47;100.00;101506.34;5263946;28;20031;-82
2022/10/17 01:13:54;;;;;;;19.70;17.42;;;;;;;13.45;100.00;101496.75;5266570;28;20068;-82
2022/10/17 01:16:42;;;;;;;22.33;17.98;;;;;;;13.49;100.00;101506.19;5267673;28;20033;-82
2022/10/17 01:19:32;;;;;;;24.80;17.75;;;;;;;13.56;100.00;101508.13;5268518;28;20553;-82
2022/10/17 01:22:34;;;;;;;20.67;17.33;;;;;;;13.63;100.00;101508.41;5270942;28;20037;-82
2022/10/17 01:25:27;;;;;;;24.45;17.75;;;;;;;13.66;100.00;101509.97;5270414;28;20029;-83
2022/10/17 01:28:15;;;;;;;21.38;18.10;;;;;;;13.75;100.00;101507.22;5295785;28;20466;-82
2022/10/17 01:30:57;;;;;;;24.52;19.15;;;;;;;13.82;100.00;101506.66;5260796;28;20686;-83
2022/10/17 01:33:42;;;;;;;23.85;20.05;;;;;;;13.84;100.00;101500.13;5269846;28;20029;-83
2022/10/17 01:36:44;;;;;;;21.58;17.63;;;;;;;13.91;100.00;101503.09;5270013;28;20036;-82
2022/10/17 01:39:38;;;;;;;24.08;19.50;;;;;;;13.87;100.00;101497.16;5300052;28;20430;-82
2022/10/17 01:42:16;;;;;;;24.13;17.75;;;;;;;13.93;100.00;101496.56;5262888;28;20565;-83
2022/10/17 01:44:58;;;;;;;20.77;17.80;;;;;;;13.93;100.00;101495.72;5259342;28;20029;-82
2022/10/17 01:47:32;;;;;;;23.75;19.20;;;;;;;13.96;100.00;101498.13;5258876;28;20032;-82
2022/10/17 01:50:13;;;;;;;20.50;17.90;;;;;;;13.99;100.00;101497.81;5262119;28;20470;-82
2022/10/17 01:52:53;;;;;;;22.00;17.35;;;;;;;13.91;100.00;101484.31;5256129;28;20421;-83
2022/10/17 01:55:30;;;;;;;19.88;17.67;;;;;;;14.08;100.00;101498.78;5265048;28;20037;-83
2022/10/17 01:58:11;;;;;;;20.20;18.02;;;;;;;14.12;100.00;101508.19;5266474;28;20082;-83
2022/10/17 02:00:44;;;;;;;20.83;17.70;;;;;;;14.14;100.00;101499.00;5260284;28;20032;-83
2022/10/17 02:03:18;;;;;;;20.20;17.27;;;;;;;14.15;100.00;101498.00;5261601;28;20168;-83
2022/10/17 02:05:49;;;;;;;20.08;17.05;;;;;;;14.12;100.00;101489.41;5265428;28;20029;-83
2022/10/17 02:08:39;;;;;;;19.85;16.55;;;;;;;14.08;100.00;101480.84;5262092;28;20037;-83
2022/10/17 02:11:24;;;;;;;19.92;16.08;;;;;;;14.06;100.00;101487.31;5261087;28;20083;-83
2022/10/17 02:14:13;;;;;;;23.52;16.55;;;;;;;14.03;100.00;101479.59;5261876;28;20500;-83
2022/10/17 02:16:53;;;;;;;19.50;16.83;;;;;;;14.08;100.00;101475.47;5266672;28;21898;-83
2022/10/17 02:19:49;;;;;;;19.70;16.55;;;;;;;14.12;100.00;101473.31;5267898;28;20025;-83
2022/10/17 02:22:29;;;;;;;17.33;15.52;;;;;;;14.12;100.00;101481.38;5262752;28;20056;-83
2022/10/17 02:25:16;;;;;;;18.42;16.20;;;;;;;14.20;100.00;101478.78;5262307;28;21567;-83
2022/10/17 02:27:52;;;;;;;19.38;16.00;;;;;;;14.18;100.00;101480.75;5270572;28;20060;-83
2022/10/17 02:30:41;;;;;;;20.30;16.48;;;;;;;14.22;100.00;101481.31;5266536;28;20104;-83
2022/10/17 02:33:24;;;;;;;18.65;14.82;;;;;;;14.27;100.00;101479.88;5263299;28;20035;-83
2022/10/17 02:36:02;;;;;;;17.00;15.20;;;;;;;14.42;100.00;101487.41;5261978;28;20049;-83
2022/10/17 02:38:34;;;;;;;19.85;16.02;;;;;;;14.40;100.00;101484.03;5274451;28;20049;-83
2022/10/17 02:41:10;;;;;;;21.63;15.40;;;;;;;14.51;100.00;101478.44;5266651;28;20068;-83
2022/10/17 02:43:44;;;;;;;21.77;14.48;;;;;;;14.54;100.00;101481.66;5266616;28;20549;-83
2022/10/17 02:46:21;;;;;;;20.90;15.35;;;;;;;14.62;100.00;101478.25;5271575;28;20371;-83
2022/10/17 02:48:58;;;;;;;22.52;15.05;;;;;;;14.62;100.00;101469.31;5270574;28;20029;-84
2022/10/17 02:51:56;;;;;;;16.75;14.50;;;;;;;14.65;100.00;101477.91;5294855;28;29808;-83
2022/10/17 02:54:53;;;;;;;17.80;14.13;;;;;;;14.60;100.00;101474.84;5262537;28;20159;-83
2022/10/17 02:57:30;;;;;;;16.00;13.93;;;;;;;14.59;100.00;101469.66;5268909;28;20025;-83
2022/10/17 03:00:05;;;;;;;15.98;12.57;;;;;;;14.62;100.00;101483.63;5262535;28;20119;-83
2022/10/17 03:02:42;;;;;;;18.13;13.13;;;;;;;14.54;100.00;101468.22;5293198;28;20444;-83
2022/10/17 03:05:26;;;;;;;14.80;13.23;;;;;;;14.49;100.00;101470.53;5268643;28;20500;-83
2022/10/17 03:07:57;;;;;;;16.83;13.40;;;;;;;14.51;100.00;101473.91;5260467;28;20084;-83
2022/10/17 03:10:28;;;;;;;14.52;13.05;;;;;;;14.53;100.00;101479.97;5263901;28;20466;-83
2022/10/17 03:13:00;;;;;;;16.95;14.07;;;;;;;14.64;100.00;101472.69;5265616;28;20412;-83
2022/10/17 03:15:31;;;;;;;14.75;13.25;;;;;;;14.70;100.00;101477.47;5264441;28;20107;-83
2022/10/17 03:18:02;;;;;;;16.92;13.15;;;;;;;14.70;100.00;101475.63;5264727;28;20420;-83
2022/10/17 03:20:34;;;;;;;18.00;13.18;;;;;;;14.71;100.00;101484.53;5269810;28;20640;-83
2022/10/17 03:23:05;;;;;;;16.67;12.77;;;;;;;14.67;100.00;101467.91;5265663;28;20033;-83
2022/10/17 03:25:37;;;;;;;14.82;13.10;;;;;;;14.66;100.00;101471.56;5268745;28;20060;-84
2022/10/17 03:28:10;;;;;;;13.95;12.50;;;;;;;14.64;100.00;101483.44;5255438;28;20029;-83
2022/10/17 03:30:41;;;;;;;15.50;12.77;;;;;;;14.57;100.00;101477.84;5254542;28;20029;-83
2022/10/17 03:33:12;;;;;;;15.38;12.85;;;;;;;14.61;100.00;101476.53;5260264;28;20030;-83
2022/10/17 03:35:44;;;;;;;14.75;12.35;;;;;;;14.55;100.00;101469.94;5295431;28;20548;-83
2022/10/17 03:38:15;;;;;;;14.32;12.77;;;;;;;14.56;100.00;101473.44;5266014;28;20486;-83
2022/10/17 03:40:53;;;;;;;15.80;12.32;;;;;;;14.65;100.00;101483.28;5271428;28;20148;-83
2022/10/17 03:43:25;;;;;;;16.25;10.88;;;;;;;14.61;100.00;101470.34;5257572;28;20099;-83
2022/10/17 03:45:57;;;;;;;17.95;12.45;;;;;;;14.59;100.00;101466.97;5262089;28;20060;-83
2022/10/17 03:48:30;;;;;;;14.20;12.52;;;;;;;14.63;100.00;101457.59;5261850;28;20029;-83
2022/10/17 03:51:05;;;;;;;14.00;12.70;;;;;;;14.61;100.00;101464.97;5266388;28;20022;-83
2022/10/17 03:53:36;;;;;;;16.42;11.80;;;;;;;14.62;100.00;101456.78;5259127;28;20069;-83
2022/10/17 03:56:09;;;;;;;18.45;13.73;;;;;;;14.68;100.00;101463.34;5278891;28;20124;-83
2022/10/17 03:58:41;;;;;;;14.25;12.38;;;;;;;14.70;100.00;101461.34;5264589;28;20037;-83
2022/10/17 04:01:15;;;;;;;16.90;12.90;;;;;;;14.75;100.00;101475.16;5293699;28;20030;-83
2022/10/17 04:03:54;;;;;;;13.95;11.88;;;;;;;14.77;100.00;101473.16;5296703;28;20137;-83
2022/10/17 04:06:25;;;;;;;13.95;11.80;;;;;;;14.86;100.00;101482.13;5254121;28;20037;-83
2022/10/17 04:08:56;;;;;;;16.50;12.43;;;;;;;14.88;100.00;101480.13;5264007;28;20025;-83
2022/10/17 04:11:28;;;;;;;15.38;11.88;;;;;;;14.96;100.00;101490.13;5259472;28;20144;-83
2022/10/17 04:13:59;;;;;;;16.05;12.20;;;;;;;14.96;100.00;101482.06;5291993;28;20524;-83
2022/10/17 04:16:31;;;;;;;12.52;11.32;;;;;;;15.11;100.00;101491.22;5262444;28;20123;-83
2022/10/17 04:19:02;;;;;;;14.75;10.82;;;;;;;15.17;100.00;101489.78;5264327;28;20026;-83
2022/10/17 04:21:33;;;;;;;13.07;10.60;;;;;;;15.16;100.00;101488.06;5294368;28;20026;-83
2022/10/17 04:24:05;;;;;;;13.02;10.43;;;;;;;15.18;100.00;101489.63;5268104;28;20059;-83
2022/10/17 04:26:36;;;;;;;11.82;10.65;;;;;;;15.18;100.00;101499.50;5266695;28;20075;-83
2022/10/17 04:29:07;;;;;;;12.70;11.15;;;;;;;15.13;100.00;101495.47;5265522;28;20029;-84
2022/10/17 04:31:39;;;;;;;13.40;11.30;;;;;;;15.18;100.00;101507.56;5267327;28;20029;-83
2022/10/17 04:34:10;;;;;;;13.27;10.82;;;;;;;15.15;100.00;101502.50;5261761;28;20025;-83
2022/10/17 04:36:41;;;;;;;12.85;10.73;;;;;;;15.10;100.00;101516.41;5267986;28;20063;-83
2022/10/17 04:39:13;;;;;;;13.57;10.10;;;;;;;15.06;100.00;101513.22;5264634;28;20052;-83
2022/10/17 04:41:44;;;;;;;13.25;10.80;;;;;;;14.99;100.00;101520.19;5258189;28;20038;-83
2022/10/17 04:44:15;;;;;;;14.18;11.05;;;;;;;15.02;100.00;101530.63;5259156;28;20433;-84
2022/10/17 04:46:47;;;;;;;14.00;11.10;;;;;;;14.99;100.00;101516.66;5256062;28;20034;-83
2022/10/17 04:49:18;;;;;;;12.85;10.43;;;;;;;15.00;100.00;101524.56;5253909;28;20104;-83
2022/10/17 04:51:49;;;;;;;11.30;10.25;;;;;;;14.99;100.00;101535.44;5257095;28;20025;-83
2022/10/17 04:54:20;;;;;;;11.95;10.70;;;;;;;14.96;100.00;101536.63;5258898;28;20407;-83
2022/10/17 04:56:52;;;;;;;12.93;11.05;;;;;;;14.97;100.00;101526.72;5260926;28;28508;-83
2022/10/17 04:59:23;;;;;;;12.80;10.60;;;;;;;15.06;100.00;101537.38;5271890;28;20037;-83
2022/10/17 05:01:55;;;;;;;11.63;10.38;;;;;;;14.99;100.00;101538.13;5260739;28;20525;-83
2022/10/17 05:04:26;;;;;;;15.77;10.48;;;;;;;15.00;100.00;101546.03;5262161;28;20040;-84
2022/10/17 05:06:57;;;;;;;10.88;9.75;;;;;;;15.04;100.00;101544.75;5261583;28;20033;-83
2022/10/17 05:09:29;;;;;;;11.52;9.88;;;;;;;15.07;100.00;101540.91;5263899;28;20201;-83
2022/10/17 05:12:00;;;;;;;12.63;10.15;;;;;;;15.06;100.00;101542.75;5259815;28;20382;-83
2022/10/17 05:14:31;;;;;;;17.35;9.77;;;;;;;15.15;100.00;101527.56;5269897;28;20029;-83
2022/10/17 05:17:02;;;;;;;12.82;9.95;;;;;;;15.12;100.00;101528.69;5268528;28;20031;-83
2022/10/17 05:19:34;;;;;;;14.55;10.55;;;;;;;15.19;100.00;101544.19;5260954;28;20497;-83
2022/10/17 05:22:05;;;;;;;16.00;10.00;;;;;;;15.19;100.00;101545.03;5258932;28;20455;-83
2022/10/17 05:24:36;;;;;;;11.80;9.70;;;;;;;15.26;100.00;101540.72;5263255;28;20073;-83
2022/10/17 05:27:08;;;;;;;13.85;9.80;;;;;;;15.31;100.00;101541.09;5265377;28;20099;-84
2022/10/17 05:29:39;;;;;;;12.45;9.32;;;;;;;15.34;100.00;101560.59;5264561;28;20037;-84
2022/10/17 05:32:10;;;;;;;11.73;9.50;;;;;;;15.37;100.00;101560.28;5264973;28;20018;-84
2022/10/17 05:34:41;;;;;;;10.98;8.85;;;;;;;15.38;100.00;101549.38;5263012;28;20398;-84
2022/10/17 05:37:13;;;;;;;11.95;9.80;;;;;;;15.49;100.00;101559.03;5269102;28;20033;-84
2022/10/17 05:39:44;;;;;;;13.10;9.75;;;;;;;15.47;100.00;101553.81;5267014;28;20033;-84
2022/10/17 05:42:15;;;;;;;10.13;9.07;;;;;;;15.62;100.00;101572.06;5272006;28;20037;-84
2022/10/17 05:44:47;;;;;;;15.40;8.90;;;;;;;15.55;100.00;101558.41;5266999;28;20136;-84
2022/10/17 05:47:18;;;;;;;11.05;8.30;;;;;;;15.68;100.00;101579.50;5265519;28;20587;-84
2022/10/17 05:49:50;;;;;;;10.15;9.10;;;;;;;15.64;100.00;101559.31;5264691;28;20100;-84
2022/10/17 05:52:21;;;;;;;13.75;8.30;;;;;;;15.71;100.00;101579.19;5264957;28;20867;-84
2022/10/17 05:54:52;;;;;;;15.43;8.82;;;;;;;15.72;100.00;101563.91;5282424;28;20402;-84
2022/10/17 05:57:25;;;;;;;12.20;8.82;;;;;;;15.72;100.00;101575.47;5284035;28;20049;-84
2022/10/17 05:59:56;;;;;;;9.50;8.38;;;;;;;15.61;100.00;101555.09;5266605;28;20048;-84
2022/10/17 06:02:27;;;;;;;9.10;8.20;;;;;;;15.70;100.00;101570.25;5267174;28;20506;-84
2022/10/17 06:04:59;;;;;;;10.40;8.48;;;;;;;15.75;100.00;101577.06;5268842;28;20042;-83
2022/10/17 06:07:34;;;;;;;11.57;8.05;;;;;;;15.81;100.00;101577.28;5270792;28;20060;-83
2022/10/17 06:10:06;;;;;;;12.03;8.20;;;;;;;15.84;100.00;101570.72;5265310;28;20041;-84
2022/10/17 06:12:38;;;;;;;14.20;8.43;;;;;;;15.85;100.00;101572.41;5293298;28;20398;-85
2022/10/17 06:15:10;;;;;;;10.40;7.60;;;;;;;15.89;100.00;101576.47;5260751;28;20120;-85
2022/10/17 06:17:42;;;;;;;10.48;7.85;;;;;;;15.97;100.00;101579.22;5262034;28;20034;-85
2022/10/17 06:20:13;;;;;;;10.25;7.35;;;;;;;15.96;100.00;101571.31;5290606;28;20116;-85
2022/10/17 06:22:44;;;;;;;11.50;7.60;;;;;;;15.95;100.00;101578.50;5256991;28;20376;-86
2022/10/17 06:25:16;;;;;;;10.73;8.23;;;;;;;15.96;100.00;101569.44;5258634;28;20075;-84
2022/10/17 06:27:47;;;;;;;12.13;8.50;;;;;;;16.02;100.00;101581.41;5254576;28;20044;-85
2022/10/17 06:30:18;;;;;;;11.68;7.28;;;;;;;16.00;100.00;101572.66;5262903;28;20517;-85
2022/10/17 06:32:51;;;;;;;10.77;7.75;;;;;;;16.01;100.00;101580.56;5265851;28;20056;-85
2022/10/17 06:35:22;;;;;;;9.88;6.88;;;;;;;16.05;100.00;101575.72;5264637;28;20028;-84
2022/10/17 06:37:54;;;;;;;8.00;6.82;;;;;;;16.12;100.00;101584.81;5278356;28;20028;-85
2022/10/17 06:40:25;;;;;;;10.43;6.90;;;;;;;16.09;100.00;101573.53;5295567;28;20100;-85
2022/10/17 06:42:56;;;;;;;10.98;6.60;;;;;;;16.19;100.00;101593.09;5263164;28;20045;-85
2022/10/17 06:45:28;;;;;;;10.18;7.47;;;;;;;16.22;100.00;101595.47;5262907;28;20068;-85
2022/10/17 06:48:01;;;;;;;10.13;6.85;;;;;;;16.31;100.00;101601.75;5261626;28;20026;-85
2022/10/17 06:50:33;;;;;;;10.25;6.28;;;;;;;16.34;100.00;101604.94;5262057;28;20041;-84
2022/10/17 06:53:05;;;;;;;7.40;5.53;;;;;;;16.38;100.00;101598.22;5262732;28;20020;-84
2022/10/17 06:55:36;;;;;;;11.98;6.53;;;;;;;16.43;100.00;101612.06;5261091;28;20017;-84
2022/10/17 06:58:07;;;;;;;6.80;5.85;;;;;;;16.53;100.00;101603.84;5277398;28;20478;-84
2022/10/17 07:00:38;;;;;;;11.95;6.25;;;;;;;16.51;100.00;101586.16;5262747;28;20045;-84
2022/10/17 07:03:10;;;;;;;6.25;5.63;;;;;;;16.62;100.00;101591.25;5260770;28;20474;-85
2022/10/17 07:05:42;;;;;;;9.13;4.97;;;;;;;16.62;100.00;101597.47;5261176;28;20028;-84
2022/10/17 07:08:13;;;;;;;7.25;5.88;;;;;;;16.62;100.00;101602.03;5260721;28;20036;-84
2022/10/17 07:10:44;;;;;;;7.57;5.13;;;;;;;16.64;100.00;101600.84;5262200;28;20433;-84
2022/10/17 07:13:17;;;;;;;8.30;5.72;;;;;;;16.72;100.00;101605.41;5256190;28;20025;-84
2022/10/17 07:15:48;;;;;;;8.48;5.63;;;;;;;16.71;100.00;101603.72;5262366;28;20453;-85
2022/10/17 07:18:20;;;;;;;7.88;5.38;;;;;;;16.78;100.00;101609.31;5262332;28;20108;-84
2022/10/17 07:20:53;;;;;;;8.60;5.47;;;;;;;16.81;100.00;101600.88;5262998;28;20508;-85
2022/10/17 07:23:24;;;;;;;7.70;5.38;;;;;;;16.81;100.00;101615.22;5261814;28;20033;-84
2022/10/17 07:26:06;;;;;;;7.18;5.35;;;;;;;16.86;100.00;101616.59;5262243;28;20072;-84
2022/10/17 07:28:39;;;;;;;12.35;5.50;;;;;;;16.83;100.00;101628.53;5261886;28;20033;-84
2022/10/17 07:31:16;;;;;;;8.93;5.20;;;;;;;16.85;100.00;101628.38;5262716;28;20105;-84
2022/10/17 07:33:48;;;;;;;7.38;5.20;;;;;;;16.89;100.00;101648.59;5264186;28;20030;-84
2022/10/17 07:36:19;;;;;;;7.22;5.05;;;;;;;16.86;100.00;101663.22;5262547;28;20022;-84
2022/10/17 07:38:51;;;;;;;9.63;5.18;;;;;;;16.86;100.00;101689.34;5262173;28;20032;-85
2022/10/17 07:41:22;;;;;;;9.50;5.43;;;;;;;16.74;100.00;101716.56;5261974;28;20149;-84
2022/10/17 07:43:54;;;;;;;8.60;5.57;;;;;;;16.64;100.00;101735.50;5262232;28;20543;-84
2022/10/17 07:46:26;;;;;;;11.85;5.70;;;;;;;16.54;100.00;101742.88;5261916;28;20156;-84
2022/10/17 07:48:57;;;;;;;11.10;6.18;;;;;;;16.37;100.00;101763.44;5276750;28;20030;-85
2022/10/17 07:51:28;;;;;;;10.77;6.22;;;;;;;16.32;100.00;101773.88;5277177;28;20148;-85
2022/10/17 07:54:00;;;;;;;8.02;6.32;;;;;;;16.26;100.00;101764.56;5262198;28;20021;-85
2022/10/17 07:56:32;;;;;;;9.05;6.20;;;;;;;16.28;100.00;101783.25;5260635;28;20035;-84
2022/10/17 07:59:03;;;;;;;7.90;5.40;;;;;;;16.29;100.00;101779.56;5261106;28;20382;-85
2022/10/17 08:01:35;;;;;;;8.82;7.03;;;;;;;16.19;100.00;101763.50;5260225;28;20458;-85
2022/10/17 08:04:06;;;;;;;11.70;8.32;;;;;;;16.18;100.00;101772.59;5261695;28;20025;-85
2022/10/17 08:06:37;;;;;;;12.38;8.57;;;;;;;16.18;100.00;101771.72;5261814;28;20458;-85
2022/10/17 08:09:09;;;;;;;15.85;9.30;;;;;;;16.13;100.00;101761.44;5261740;28;20040;-85
2022/10/17 08:11:42;;;;;;;13.98;8.93;;;;;;;16.17;100.00;101772.75;5262192;28;20071;-85
2022/10/17 08:14:15;;;;;;;14.07;9.57;;;;;;;16.13;100.00;101774.91;5261648;28;20040;-85
2022/10/17 08:16:46;;;;;;;18.65;10.02;;;;;;;16.13;100.00;101795.56;5262267;28;20516;-85
2022/10/17 08:19:18;;;;;;;11.27;9.80;;;;;;;16.10;100.00;101806.69;5261041;28;20029;-85
2022/10/17 08:21:50;;;;;;;15.80;9.85;;;;;;;16.06;100.00;101833.06;5261862;28;20062;-85
2022/10/17 08:24:21;;;;;;;15.02;10.18;;;;;;;15.99;100.00;101840.88;5261807;28;20063;-85
2022/10/17 08:26:53;;;;;;;13.40;10.00;;;;;;;16.04;100.00;101840.41;5261856;28;20025;-85
2022/10/17 08:29:25;;;;;;;14.85;9.77;;;;;;;16.08;100.00;101825.66;5260674;28;20132;-85
2022/10/17 08:31:56;;;;;;;18.30;9.98;;;;;;;16.07;100.00;101834.72;5261823;28;20470;-84
2022/10/17 08:34:27;;;;;;;14.90;9.75;;;;;;;16.08;100.00;101847.19;5260192;28;20022;-85
2022/10/17 08:36:59;;;;;;;13.13;10.07;;;;;;;16.08;100.00;101839.13;5261591;28;20018;-85
2022/10/17 08:39:30;;;;;;;13.88;10.30;;;;;;;16.11;100.00;101827.19;5261495;28;20458;-85
2022/10/17 08:42:27;;;;;;;11.45;10.10;;;;;;;16.12;100.00;101843.19;5258774;28;20101;-85
2022/10/17 08:45:13;;;;;;;10.73;9.63;;;;;;;16.10;100.00;101838.97;5240851;28;20022;-85
2022/10/17 08:47:48;;;;;;;13.10;9.73;;;;;;;16.13;100.00;101828.75;5240935;28;20022;-85
2022/10/17 08:50:32;;;;;;;13.88;10.25;;;;;;;16.15;100.00;101834.81;5256129;28;20029;-85
2022/10/17 08:53:15;;;;;;;15.02;10.63;;;;;;;16.17;100.00;101834.66;5240837;28;20033;-86
2022/10/17 08:55:49;;;;;;;15.98;9.98;;;;;;;16.20;100.00;101826.28;5240783;28;20229;-85
2022/10/17 08:58:29;;;;;;;14.85;11.23;;;;;;;16.22;100.00;101825.09;5240786;28;20494;-85
2022/10/17 09:01:08;;;;;;;13.77;10.10;;;;;;;16.23;100.00;101834.00;5258981;28;20021;-85
2022/10/17 09:04:01;;;;;;;13.32;10.68;;;;;;;16.24;100.00;101833.88;5259032;28;20158;-86
2022/10/17 09:06:37;;;;;;;15.77;11.43;;;;;;;16.24;100.00;101847.31;5261481;28;20490;-86
2022/10/17 09:09:23;;;;;;;12.10;10.13;;;;;;;16.18;100.00;101849.78;5259116;28;20124;-85
2022/10/17 09:12:15;;;;;;;13.13;10.00;;;;;;;16.19;100.00;101871.16;5276595;28;20029;-85
2022/10/17 09:14:52;;;;;;;14.73;11.73;;;;;;;16.18;100.00;101888.34;5240707;28;20831;-85
2022/10/17 09:17:48;;;;;;;12.43;11.13;;;;;;;16.16;100.00;101894.84;5240801;28;20045;-86
2022/10/17 09:20:23;;;;;;;15.45;11.13;;;;;;;16.07;100.00;101907.38;5286946;28;20029;-86
2022/10/17 09:23:22;;;;;;;19.77;12.75;;;;;;;16.11;100.00;101889.94;5263257;28;20033;-86
2022/10/17 09:25:57;;;;;;;18.05;12.32;;;;;;;16.01;100.00;101884.63;5264235;28;20100;-87
2022/10/17 09:28:34;;;;;;;16.70;13.07;;;;;;;16.05;100.00;101842.94;5264234;28;20052;-87
2022/10/17 09:31:15;;;;;;;19.80;13.10;;;;;;;16.06;100.00;101806.97;5263933;28;20470;-87
2022/10/17 09:33:49;;;;;;;15.07;11.90;;;;;;;16.13;100.00;101792.88;5263532;28;20129;-86
2022/10/17 09:36:39;;;;;;;20.15;12.55;;;;;;;16.25;100.00;101810.47;5279606;28;20049;-86
2022/10/17 09:39:15;;;;;;;15.50;12.48;;;;;;;16.33;100.00;101817.78;5262829;28;20029;-86
2022/10/17 09:41:56;;;;;;;15.88;12.82;;;;;;;16.42;100.00;101839.22;5279932;28;20137;-85
2022/10/17 09:45:03;;;;;;;15.75;12.45;;;;;;;16.36;100.00;101856.00;5263957;28;20033;-85
2022/10/17 09:47:42;;;;;;;14.52;12.90;;;;;;;16.31;100.00;101869.09;5279808;28;20487;-85
2022/10/17 09:50:26;;;;;;;17.40;12.95;;;;;;;16.25;100.00;101854.41;5284909;28;20025;-85
2022/10/17 09:53:17;;;;;;;16.23;13.10;;;;;;;16.29;100.00;101843.34;5285394;28;20024;-86
2022/10/17 09:55:54;;;;;;;17.73;13.85;;;;;;;16.37;100.00;101838.00;5266623;28;20061;-86
2022/10/17 09:58:51;;;;;;;16.30;13.90;;;;;;;16.53;100.00;101835.44;5263584;28;20056;-86
2022/10/17 10:01:24;;;;;;;21.10;14.02;;;;;;;16.51;100.00;101839.28;5277826;28;20017;-86
2022/10/17 10:04:11;;;;;;;16.23;13.13;;;;;;;16.59;100.00;101840.19;5259490;28;20103;-86
2022/10/17 10:07:02;;;;;;;16.42;12.77;;;;;;;16.47;100.00;101836.06;5262056;28;20036;-86
2022/10/17 10:09:35;;;;;;;15.63;12.43;;;;;;;16.55;100.00;101844.22;5263457;28;20489;-85
2022/10/17 10:12:16;;;;;;;18.30;12.80;;;;;;;16.54;100.00;101857.84;5263988;28;20409;-85
2022/10/17 10:14:48;;;;;;;13.52;12.15;;;;;;;16.47;100.00;101862.16;5263109;28;20064;-85
2022/10/17 10:17:33;;;;;;;13.13;11.07;;;;;;;16.48;100.00;101872.78;5263348;28;20057;-85
2022/10/17 10:20:28;;;;;;;17.17;12.23;;;;;;;16.41;100.00;101871.72;5278521;28;20052;-85
2022/10/17 10:23:04;;;;;;;13.60;12.13;;;;;;;16.47;100.00;101879.16;5263039;28;20034;-85
2022/10/17 10:25:35;;;;;;;16.37;11.57;;;;;;;16.53;100.00;101888.44;5262433;28;20115;-85
2022/10/17 10:28:10;;;;;;;11.68;10.23;;;;;;;16.45;100.00;101892.75;5263849;28;20068;-85
2022/10/17 10:30:48;;;;;;;12.13;10.27;;;;;;;16.51;100.00;101893.97;5278758;28;20051;-85
2022/10/17 10:33:27;;;;;;;12.65;10.38;;;;;;;16.62;100.00;101903.69;5262835;28;20025;-85
2022/10/17 10:36:00;;;;;;;10.40;9.45;;;;;;;16.62;100.00;101906.38;5279314;28;20044;-85
2022/10/17 10:38:34;;;;;;;13.25;9.98;;;;;;;16.68;100.00;101923.75;5283491;28;20032;-85
2022/10/17 10:41:08;;;;;;;10.57;9.57;;;;;;;16.74;100.00;101926.69;5276989;28;20064;-85
2022/10/17 10:43:42;;;;;;;12.38;9.68;;;;;;;16.67;100.00;101947.13;5257029;28;20069;-86
2022/10/17 10:46:22;;;;;;;11.57;9.57;;;;;;;16.63;100.00;101946.59;5261296;28;20017;-85
2022/10/17 10:48:58;;;;;;;11.20;9.23;;;;;;;16.59;100.00;101961.38;5262961;28;20021;-85
2022/10/17 10:51:37;;;;;;;10.50;8.90;;;;;;;16.56;100.00;101953.59;5262827;28;20080;-85
2022/10/17 10:54:20;;;;;;;10.68;8.82;;;;;;;16.61;100.00;101966.63;5277679;28;20029;-85
2022/10/17 10:56:55;;;;;;;12.90;9.50;;;;;;;16.59;100.00;101965.94;5262094;28;20036;-85
2022/10/17 10:59:37;;;;;;;11.45;9.07;;;;;;;16.62;100.00;101954.88;5262628;28;20021;-85
2022/10/17 11:02:24;;;;;;;10.45;8.82;;;;;;;16.58;100.00;101962.38;5262381;28;20091;-85
2022/10/17 11:05:05;;;;;;;10.50;8.80;;;;;;;16.60;100.00;101949.63;5262571;28;20516;-85
2022/10/17 11:07:46;;;;;;;13.70;9.93;;;;;;;16.67;100.00;101957.06;5262061;28;20018;-85
2022/10/17 11:10:40;;;;;;;9.77;8.77;;;;;;;16.70;100.00;101960.28;5262549;28;20034;-85
2022/10/17 11:13:27;;;;;;;10.55;8.50;;;;;;;16.68;100.00;101954.22;5262018;28;20022;-85
2022/10/17 11:16:17;;;;;;;10.50;9.40;;;;;;;16.71;100.00;101974.63;5262135;28;20029;-85
2022/10/17 11:19:23;;;;;;;10.20;8.65;;;;;;;16.71;100.00;101980.84;5262451;28;20030;-84
2022/10/17 11:22:08;;;;;;;13.13;9.52;;;;;;;16.71;100.00;101988.09;5267234;28;20033;-85
2022/10/17 11:24:55;;;;;;;9.95;8.75;;;;;;;16.66;100.00;101985.88;5261585;28;20061;-85
2022/10/17 11:27:29;;;;;;;11.90;9.63;;;;;;;16.64;100.00;101986.00;5262283;28;20018;-84
2022/10/17 11:30:02;;;;;;;10.13;8.43;;;;;;;16.62;100.00;101988.03;5262398;28;20032;-84
2022/10/17 11:32:41;;;;;;;14.30;10.18;;;;;;;16.76;100.00;102007.31;5262252;28;20021;-85
2022/10/17 11:35:22;;;;;;;12.45;9.73;;;;;;;16.66;100.00;101988.56;5262316;28;20149;-84
2022/10/17 11:38:16;;;;;;;14.23;9.90;;;;;;;16.80;100.00;102009.56;5260208;28;20017;-84
2022/10/17 11:40:54;;;;;;;12.45;10.07;;;;;;;16.82;100.00;102007.53;5262020;28;20112;-85
2022/10/17 11:43:37;;;;;;;11.95;9.88;;;;;;;16.73;100.00;102010.34;5262582;28;20036;-85